createdAt,value
2023-03-27T00:01:39.568Z,4.70
2023-03-27T00:04:09.372Z,4.70
2023-03-27T00:06:37.537Z,4.70
2023-03-27T00:09:06.887Z,4.70
2023-03-27T00:11:34.718Z,4.60
2023-03-27T00:14:02.945Z,4.60
2023-03-27T00:16:48.465Z,4.50
2023-03-27T00:19:22.130Z,4.50
2023-03-27T00:21:49.431Z,4.50
2023-03-27T00:24:19.425Z,4.50
2023-03-27T00:26:47.233Z,4.60
2023-03-27T00:29:16.441Z,4.60
2023-03-27T00:31:43.593Z,4.50
2023-03-27T00:34:13.398Z,4.60
2023-03-27T00:36:43.010Z,4.60
2023-03-27T00:39:10.375Z,4.60
2023-03-27T00:41:40.225Z,4.70
2023-03-27T00:44:24.154Z,4.70
2023-03-27T00:46:53.705Z,4.80
2023-03-27T00:49:23.285Z,4.90
2023-03-27T00:51:54.894Z,4.90
2023-03-27T00:54:24.189Z,5.00
2023-03-27T00:56:52.469Z,5.00
2023-03-27T00:59:23.552Z,5.00
2023-03-27T01:01:52.793Z,5.10
2023-03-27T01:04:20.923Z,5.10
2023-03-27T01:06:49.454Z,5.10
2023-03-27T01:09:20.521Z,5.10
2023-03-27T01:12:02.864Z,5.10
2023-03-27T01:14:37.901Z,5.20
2023-03-27T01:17:22.398Z,5.20
2023-03-27T01:20:32.456Z,5.20
2023-03-27T01:23:59.975Z,5.20
2023-03-27T01:27:01.810Z,5.20
2023-03-27T01:29:45.302Z,5.20
2023-03-27T01:33:02.074Z,5.20
2023-03-27T01:35:51.220Z,5.20
2023-03-27T01:39:07.409Z,5.20
2023-03-27T01:41:46.743Z,5.10
2023-03-27T01:44:17.399Z,5.10
2023-03-27T01:46:51.690Z,5.00
2023-03-27T01:49:24.998Z,4.90
2023-03-27T01:51:57.771Z,4.80
2023-03-27T01:54:28.388Z,4.60
2023-03-27T01:57:04.582Z,4.50
2023-03-27T01:59:36.432Z,4.30
2023-03-27T02:02:08.888Z,4.30
2023-03-27T02:04:44.499Z,4.20
2023-03-27T02:07:19.167Z,4.20
2023-03-27T02:09:50.944Z,4.20
2023-03-27T02:12:23.775Z,4.20
2023-03-27T02:14:56.060Z,4.20
2023-03-27T02:17:25.480Z,4.30
2023-03-27T02:19:59.046Z,4.30
2023-03-27T02:22:38.358Z,4.30
2023-03-27T02:25:28.204Z,4.40
2023-03-27T02:28:23.055Z,4.40
2023-03-27T02:31:06.233Z,4.40
2023-03-27T02:34:07.671Z,4.40
2023-03-27T02:36:44.342Z,4.50
2023-03-27T02:39:19.509Z,4.50
2023-03-27T02:41:54.729Z,4.50
2023-03-27T02:44:32.015Z,4.50
2023-03-27T02:47:06.609Z,4.50
2023-03-27T02:49:41.248Z,4.50
2023-03-27T02:52:13.560Z,4.50
2023-03-27T02:54:45.380Z,4.50
2023-03-27T02:57:19.606Z,4.50
2023-03-27T02:59:53.820Z,4.40
2023-03-27T03:02:23.370Z,4.40
2023-03-27T03:04:56.613Z,4.40
2023-03-27T03:07:25.247Z,4.40
2023-03-27T03:09:53.541Z,4.40
2023-03-27T03:12:21.551Z,4.30
2023-03-27T03:14:52.071Z,4.30
2023-03-27T03:17:22.287Z,4.30
2023-03-27T03:19:50.194Z,4.30
2023-03-27T03:22:18.366Z,4.30
2023-03-27T03:24:49.279Z,4.30
2023-03-27T03:27:17.782Z,4.20
2023-03-27T03:29:45.784Z,4.20
2023-03-27T03:32:18.021Z,4.10
2023-03-27T03:34:45.904Z,4.10
2023-03-27T03:37:13.376Z,4.10
2023-03-27T03:39:41.389Z,4.10
2023-03-27T03:42:08.869Z,4.00
2023-03-27T03:44:37.511Z,4.00
2023-03-27T03:47:07.021Z,3.90
2023-03-27T03:49:36.152Z,3.80
2023-03-27T03:52:04.696Z,3.70
2023-03-27T03:54:32.302Z,3.60
2023-03-27T03:57:01.112Z,3.60
2023-03-27T03:59:28.334Z,3.60
2023-03-27T04:01:55.777Z,3.50
2023-03-27T04:04:23.501Z,3.40
2023-03-27T04:06:52.577Z,3.30
2023-03-27T04:09:20.540Z,3.30
2023-03-27T04:11:50.873Z,3.20
2023-03-27T04:14:19.604Z,3.20
2023-03-27T04:16:47.518Z,3.20
2023-03-27T04:19:15.501Z,3.20
2023-03-27T04:21:43.608Z,3.20
2023-03-27T04:24:15.823Z,3.30
2023-03-27T04:26:44.496Z,3.30
2023-03-27T04:29:16.622Z,3.40
2023-03-27T04:31:45.196Z,3.50
2023-03-27T04:34:12.640Z,3.50
2023-03-27T04:36:40.432Z,3.50
2023-03-27T04:39:07.714Z,3.60
2023-03-27T04:41:41.373Z,3.60
2023-03-27T04:44:09.228Z,3.60
2023-03-27T04:46:36.484Z,3.70
2023-03-27T04:49:03.927Z,3.70
2023-03-27T04:51:33.404Z,3.80
2023-03-27T04:54:02.660Z,3.70
2023-03-27T04:56:32.940Z,3.70
2023-03-27T04:59:02.389Z,3.60
2023-03-27T05:01:29.394Z,3.60
2023-03-27T05:03:59.438Z,3.50
2023-03-27T05:06:26.966Z,3.50
2023-03-27T05:09:03.709Z,3.50
2023-03-27T05:11:32.772Z,3.60
2023-03-27T05:14:04.944Z,3.50
2023-03-27T05:16:33.460Z,3.50
2023-03-27T05:19:01.488Z,3.50
2023-03-27T05:21:28.684Z,3.40
2023-03-27T05:23:55.872Z,3.40
2023-03-27T05:26:22.713Z,3.30
2023-03-27T05:28:49.653Z,3.30
2023-03-27T05:31:18.354Z,3.30
2023-03-27T05:33:45.414Z,3.30
2023-03-27T05:36:12.780Z,3.30
2023-03-27T05:38:40.352Z,3.30
2023-03-27T05:41:07.621Z,3.30
2023-03-27T05:43:34.604Z,3.30
2023-03-27T05:46:01.843Z,3.30
2023-03-27T05:48:31.005Z,3.30
2023-03-27T05:50:58.210Z,3.20
2023-03-27T05:53:28.180Z,3.20
2023-03-27T05:56:03.179Z,3.20
2023-03-27T05:58:30.755Z,3.10
2023-03-27T06:00:58.596Z,3.00
2023-03-27T06:03:26.154Z,3.00
2023-03-27T06:08:36.837Z,3.00
2023-03-27T06:11:08.612Z,3.00
2023-03-27T06:13:36.228Z,2.90
2023-03-27T06:16:04.209Z,2.80
2023-03-27T06:18:31.733Z,2.80
2023-03-27T06:21:01.129Z,2.70
2023-03-27T06:23:28.449Z,2.70
2023-03-27T06:25:56.053Z,2.60
2023-03-27T06:28:23.411Z,2.50
2023-03-27T06:30:51.293Z,2.50
2023-03-27T06:33:18.480Z,2.50
2023-03-27T06:35:52.872Z,2.50
2023-03-27T06:38:22.738Z,2.50
2023-03-27T06:40:49.835Z,2.50
2023-03-27T06:43:17.390Z,2.40
2023-03-27T06:45:46.632Z,2.40
2023-03-27T06:48:20.393Z,2.30
2023-03-27T06:50:50.849Z,2.40
2023-03-27T06:55:51.467Z,2.30
2023-03-27T07:01:00.493Z,2.30
2023-03-27T07:03:27.676Z,2.20
2023-03-27T07:05:57.913Z,2.20
2023-03-27T07:08:25.635Z,2.20
2023-03-27T07:11:10.813Z,2.20
2023-03-27T07:13:40.621Z,2.20
2023-03-27T07:16:09.232Z,2.20
2023-03-27T07:18:36.554Z,2.20
2023-03-27T07:21:03.711Z,2.20
2023-03-27T07:23:30.675Z,2.20
2023-03-27T07:26:00.298Z,2.10
2023-03-27T07:28:27.719Z,2.10
2023-03-27T07:30:55.674Z,2.10
2023-03-27T07:33:22.926Z,2.10
2023-03-27T07:35:50.945Z,2.10
2023-03-27T07:38:17.960Z,2.20
2023-03-27T07:40:45.466Z,2.20
2023-03-27T07:43:14.378Z,2.10
2023-03-27T07:45:42.604Z,2.10
2023-03-27T07:48:11.907Z,2.10
2023-03-27T07:50:39.140Z,2.00
2023-03-27T07:53:07.593Z,2.00
2023-03-27T07:55:34.457Z,1.90
2023-03-27T07:58:03.309Z,1.90
2023-03-27T08:00:32.143Z,1.80
2023-03-27T08:03:05.812Z,1.80
2023-03-27T08:05:32.696Z,1.80
2023-03-27T08:07:59.622Z,1.80
2023-03-27T08:10:26.677Z,1.80
2023-03-27T08:12:54.164Z,1.80
2023-03-27T08:15:21.581Z,1.90
2023-03-27T08:17:51.315Z,1.90
2023-03-27T08:20:18.420Z,1.90
2023-03-27T08:22:46.238Z,2.00
2023-03-27T08:25:14.401Z,2.20
2023-03-27T08:27:41.568Z,2.40
2023-03-27T08:30:10.309Z,2.60
2023-03-27T08:32:39.417Z,2.70
2023-03-27T08:35:08.610Z,2.90
2023-03-27T08:37:35.734Z,3.00
2023-03-27T08:40:03.596Z,3.20
2023-03-27T08:42:36.288Z,3.20
2023-03-27T08:45:13.454Z,3.30
2023-03-27T08:47:45.460Z,3.30
2023-03-27T08:50:31.972Z,3.20
2023-03-27T08:53:00.155Z,2.90
2023-03-27T08:55:37.009Z,2.80
2023-03-27T08:58:04.599Z,2.50
2023-03-27T09:00:38.330Z,2.30
2023-03-27T09:03:13.909Z,2.30
2023-03-27T09:05:46.757Z,2.30
2023-03-27T09:08:24.492Z,2.40
2023-03-27T09:10:58.580Z,2.40
2023-03-27T09:13:27.867Z,2.40
2023-03-27T09:16:00.560Z,2.40
2023-03-27T09:18:34.804Z,2.40
2023-03-27T09:21:05.783Z,2.40
2023-03-27T09:23:38.799Z,2.40
2023-03-27T09:26:10.866Z,2.40
2023-03-27T09:28:44.092Z,2.40
2023-03-27T09:31:23.981Z,2.40
2023-03-27T09:33:51.655Z,2.40
2023-03-27T09:36:21.179Z,2.60
2023-03-27T09:38:52.014Z,2.70
2023-03-27T09:41:24.235Z,2.80
2023-03-27T09:43:56.576Z,2.80
2023-03-27T09:46:26.514Z,2.90
2023-03-27T09:48:59.411Z,3.00
2023-03-27T09:51:42.733Z,3.10
2023-03-27T09:54:11.258Z,3.00
2023-03-27T09:56:40.114Z,3.10
2023-03-27T09:59:24.779Z,3.20
2023-03-27T10:01:55.570Z,3.20
2023-03-27T10:04:25.666Z,3.20
2023-03-27T10:07:01.198Z,3.30
2023-03-27T10:09:30.548Z,3.30
2023-03-27T10:12:03.246Z,3.30
2023-03-27T10:14:32.801Z,3.40
2023-03-27T10:16:59.846Z,3.50
2023-03-27T10:22:21.028Z,4.10
2023-03-27T10:24:48.812Z,4.40
2023-03-27T10:27:22.486Z,4.50
2023-03-27T10:29:49.918Z,4.60
2023-03-27T10:32:17.919Z,4.60
2023-03-27T10:34:54.913Z,4.60
2023-03-27T10:37:27.630Z,4.60
2023-03-27T10:39:57.363Z,4.50
2023-03-27T10:42:27.465Z,4.30
2023-03-27T10:44:55.714Z,4.30
2023-03-27T10:47:25.418Z,4.30
2023-03-27T10:50:00.957Z,4.30
2023-03-27T10:52:37.786Z,4.50
2023-03-27T10:55:30.845Z,4.60
2023-03-27T10:58:02.980Z,4.80
2023-03-27T11:00:35.544Z,5.00
2023-03-27T11:03:10.578Z,5.20
2023-03-27T11:05:40.669Z,5.20
2023-03-27T11:08:15.958Z,5.00
2023-03-27T11:10:44.852Z,5.00
2023-03-27T11:13:19.257Z,5.10
2023-03-27T11:15:50.823Z,5.00
2023-03-27T11:18:21.539Z,5.00
2023-03-27T11:20:51.820Z,4.80
2023-03-27T11:23:28.708Z,5.00
2023-03-27T11:25:59.038Z,5.10
2023-03-27T11:28:41.232Z,5.10
2023-03-27T11:31:15.514Z,5.30
2023-03-27T11:33:48.672Z,5.50
2023-03-27T11:36:27.485Z,5.50
2023-03-27T11:39:06.849Z,5.50
2023-03-27T11:41:34.115Z,5.60
2023-03-27T11:44:01.359Z,5.70
2023-03-27T11:46:55.808Z,5.50
2023-03-27T11:49:36.073Z,5.30
2023-03-27T11:52:16.156Z,5.10
2023-03-27T11:54:58.616Z,4.90
2023-03-27T11:57:26.580Z,4.90
2023-03-27T12:00:18.322Z,5.10
2023-03-27T12:03:18.451Z,5.50
2023-03-27T12:05:59.299Z,5.60
2023-03-27T12:08:38.652Z,5.00
2023-03-27T12:11:10.681Z,4.90
2023-03-27T12:14:17.723Z,4.60
2023-03-27T12:17:16.058Z,4.50
2023-03-27T12:20:16.659Z,4.60
2023-03-27T12:22:54.813Z,4.70
2023-03-27T12:25:46.340Z,5.00
2023-03-27T12:28:33.144Z,5.30
2023-03-27T12:31:12.728Z,5.60
2023-03-27T12:33:48.374Z,5.60
2023-03-27T12:36:19.555Z,5.60
2023-03-27T12:38:47.229Z,5.50
2023-03-27T12:41:22.234Z,5.40
2023-03-27T12:43:55.595Z,5.50
2023-03-27T12:46:37.671Z,5.40
2023-03-27T12:49:46.978Z,5.40
2023-03-27T12:52:16.140Z,5.20
2023-03-27T12:55:04.565Z,5.10
2023-03-27T12:57:32.203Z,5.40
2023-03-27T13:00:02.115Z,5.20
2023-03-27T13:03:03.639Z,5.10
2023-03-27T13:05:56.053Z,5.10
2023-03-27T13:08:45.073Z,5.10
2023-03-27T13:11:21.307Z,5.30
2023-03-27T13:14:14.259Z,5.40
2023-03-27T13:17:08.649Z,5.30
2023-03-27T13:19:50.301Z,5.10
2023-03-27T13:22:36.514Z,5.00
2023-03-27T13:25:28.704Z,4.90
2023-03-27T13:28:29.075Z,4.90
2023-03-27T13:30:57.334Z,4.90
2023-03-27T13:33:37.957Z,4.70
2023-03-27T13:36:11.836Z,5.00
2023-03-27T13:39:18.413Z,5.40
2023-03-27T13:42:09.380Z,6.70
2023-03-27T13:44:59.244Z,7.50
2023-03-27T13:48:02.511Z,7.50
2023-03-27T13:50:52.700Z,7.50
2023-03-27T13:53:45.013Z,7.40
2023-03-27T13:56:34.546Z,7.40
2023-03-27T13:59:41.116Z,7.80
2023-03-27T14:02:42.912Z,9.70
2023-03-27T14:05:24.061Z,10.10
2023-03-27T14:08:09.392Z,9.60
2023-03-27T14:11:09.018Z,9.20
2023-03-27T14:13:49.180Z,10.00
2023-03-27T14:16:44.932Z,11.30
2023-03-27T14:19:37.757Z,12.50
2023-03-27T14:22:10.329Z,13.80
2023-03-27T14:24:44.829Z,13.00
2023-03-27T14:27:16.295Z,10.80
2023-03-27T14:29:43.314Z,8.70
2023-03-27T14:32:15.436Z,7.40
2023-03-27T14:34:53.310Z,6.50
2023-03-27T14:37:26.478Z,5.80
2023-03-27T14:39:56.074Z,5.10
2023-03-27T14:42:31.986Z,4.50
2023-03-27T14:45:16.522Z,4.00
2023-03-27T14:47:52.219Z,3.20
2023-03-27T14:55:55.374Z,2.30
2023-03-27T14:58:24.019Z,2.30
2023-03-27T15:00:54.167Z,2.50
2023-03-27T15:03:24.587Z,3.60
2023-03-27T15:05:57.952Z,5.40
2023-03-27T15:08:26.008Z,7.20
2023-03-27T15:10:55.459Z,7.50
2023-03-27T15:13:25.033Z,6.90
2023-03-27T15:15:54.466Z,7.40
2023-03-27T21:18:04.555Z,-0.30
2023-03-27T21:20:33.133Z,-0.30
2023-03-27T21:23:01.373Z,-0.40
2023-03-27T21:25:28.114Z,-0.40
2023-03-27T21:27:54.980Z,-0.30
2023-03-27T21:30:21.806Z,-0.30
2023-03-27T21:32:48.609Z,-0.20
2023-03-27T21:35:17.022Z,-0.10
2023-03-27T21:37:44.270Z,-0.20
2023-03-27T21:40:11.663Z,-0.20
2023-03-27T21:42:38.471Z,0.00
2023-03-27T21:45:06.719Z,-0.10
2023-03-27T21:47:46.646Z,-0.10
2023-03-27T21:50:16.056Z,0.00
2023-03-27T21:52:42.937Z,-0.10
2023-03-27T21:55:09.874Z,-0.10
2023-03-27T21:57:36.676Z,-0.10
2023-03-27T22:00:04.121Z,0.00
2023-03-27T22:02:30.865Z,-0.10
2023-03-27T22:04:57.646Z,-0.10
2023-03-27T22:07:25.829Z,-0.10
2023-03-27T22:09:52.619Z,-0.10
2023-03-27T22:12:19.498Z,-0.20
2023-03-27T22:14:46.226Z,-0.20
2023-03-27T22:17:13.093Z,-0.20
2023-03-27T22:19:39.809Z,-0.30
2023-03-27T22:22:06.565Z,-0.30
2023-03-27T22:24:34.743Z,-0.10
2023-03-27T22:27:01.481Z,-0.10
2023-03-27T22:29:28.212Z,-0.10
2023-03-27T22:31:54.933Z,-0.10
2023-03-27T22:34:21.766Z,-0.10
2023-03-27T22:36:48.617Z,-0.10
2023-03-27T22:39:15.412Z,-0.10
2023-03-27T22:41:43.658Z,0.00
2023-03-27T22:44:10.621Z,0.00
2023-03-27T22:46:37.574Z,-0.10
2023-03-27T22:49:04.470Z,-0.10
2023-03-27T22:51:31.417Z,0.00
2023-03-27T22:53:58.422Z,0.00
2023-03-27T22:56:25.401Z,0.00
2023-03-27T22:58:53.655Z,0.10
2023-03-27T23:01:20.505Z,0.10
2023-03-27T23:03:47.521Z,0.20
2023-03-27T23:06:18.297Z,0.30
2023-03-27T23:08:45.214Z,0.30
2023-03-27T23:11:13.050Z,0.30
2023-03-27T23:13:40.337Z,0.30
2023-03-27T23:16:09.688Z,0.40
2023-03-27T23:18:36.517Z,0.50
2023-03-27T23:21:05.368Z,0.60
2023-03-27T23:23:33.613Z,0.70
2023-03-27T23:26:00.670Z,0.60
2023-03-27T23:28:30.812Z,0.60
2023-03-27T23:30:59.261Z,0.60
2023-03-27T23:33:28.129Z,0.50
2023-03-27T23:36:01.776Z,0.40
2023-03-27T23:38:28.773Z,0.40
2023-03-27T23:40:55.975Z,0.40
2023-03-27T23:43:23.038Z,0.50
2023-03-27T23:45:49.922Z,0.50
2023-03-27T23:48:16.803Z,0.60
2023-03-27T23:50:45.344Z,0.50
2023-03-27T23:53:12.157Z,0.50
2023-03-27T23:55:39.109Z,0.40
2023-03-27T23:58:06.003Z,0.30
